createdAt,value
2022-11-16T00:00:06.056Z,9.56
2022-11-16T00:01:03.822Z,9.56
2022-11-16T00:02:03.928Z,9.50
2022-11-16T00:03:04.004Z,9.50
2022-11-16T00:04:03.944Z,9.50
2022-11-16T00:05:04.073Z,9.50
2022-11-16T00:06:04.162Z,9.56
2022-11-16T00:07:04.179Z,9.56
2022-11-16T00:08:04.231Z,9.56
2022-11-16T00:09:04.310Z,9.56
2022-11-16T00:10:04.309Z,9.56
2022-11-16T00:11:03.515Z,9.56
2022-11-16T00:12:03.514Z,9.50
2022-11-16T00:13:03.505Z,9.56
2022-11-16T00:14:03.595Z,9.56
2022-11-16T00:15:03.753Z,9.56
2022-11-16T00:16:03.841Z,9.50
2022-11-16T00:17:03.834Z,9.50
2022-11-16T00:18:03.837Z,9.56
2022-11-16T00:19:03.825Z,9.56
2022-11-16T00:20:03.916Z,9.50
2022-11-16T00:21:03.994Z,9.56
2022-11-16T00:22:04.071Z,9.56
2022-11-16T00:23:04.072Z,9.56
2022-11-16T00:24:04.100Z,9.50
2022-11-16T00:25:04.075Z,9.50
2022-11-16T00:26:04.072Z,9.50
2022-11-16T00:27:04.160Z,9.44
2022-11-16T00:28:04.156Z,9.44
2022-11-16T00:29:04.229Z,9.44
2022-11-16T00:30:04.235Z,9.44
2022-11-16T00:31:04.233Z,9.44
2022-11-16T00:32:04.387Z,9.44
2022-11-16T00:33:04.469Z,9.44
2022-11-16T00:34:04.383Z,9.38
2022-11-16T00:35:04.487Z,9.38
2022-11-16T00:38:04.233Z,9.38
2022-11-16T00:39:04.330Z,9.44
2022-11-16T00:40:04.465Z,9.44
2022-11-16T00:41:03.531Z,9.44
2022-11-16T00:42:03.663Z,9.38
2022-11-16T00:43:03.678Z,9.38
2022-11-16T00:44:03.678Z,9.44
2022-11-16T00:45:03.663Z,9.44
2022-11-16T00:46:03.750Z,9.44
2022-11-16T00:47:03.872Z,9.44
2022-11-16T00:48:03.909Z,9.44
2022-11-16T00:49:03.911Z,9.44
2022-11-16T00:50:03.831Z,9.44
2022-11-16T00:51:03.836Z,9.38
2022-11-16T00:52:03.832Z,9.38
2022-11-16T00:53:03.913Z,9.38
2022-11-16T00:54:03.911Z,9.44
2022-11-16T00:55:03.912Z,9.50
2022-11-16T00:56:04.231Z,9.44
2022-11-16T00:57:04.567Z,9.44
2022-11-16T00:58:03.746Z,9.44
2022-11-16T00:59:03.601Z,9.44
2022-11-16T01:00:03.588Z,9.44
2022-11-16T01:01:03.705Z,9.38
2022-11-16T01:02:03.756Z,9.38
2022-11-16T01:03:03.828Z,9.38
2022-11-16T01:04:03.929Z,9.38
2022-11-16T01:05:03.919Z,9.38
2022-11-16T01:06:03.944Z,9.38
2022-11-16T01:07:03.961Z,9.38
2022-11-16T01:08:03.998Z,9.38
2022-11-16T01:09:04.082Z,9.38
2022-11-16T01:10:04.415Z,9.38
2022-11-16T01:11:03.519Z,9.31
2022-11-16T01:12:03.970Z,9.31
2022-11-16T01:13:04.103Z,9.31
2022-11-16T01:14:04.397Z,9.31
2022-11-16T01:15:03.824Z,9.31
2022-11-16T01:16:03.867Z,9.31
2022-11-16T01:17:04.092Z,9.31
2022-11-16T01:18:04.538Z,9.31
2022-11-16T01:19:03.883Z,9.31
2022-11-16T01:20:03.920Z,9.31
2022-11-16T01:21:04.089Z,9.31
2022-11-16T01:22:04.270Z,9.31
2022-11-16T01:23:03.746Z,9.31
2022-11-16T01:24:04.163Z,9.31
2022-11-16T01:25:04.541Z,9.31
2022-11-16T01:26:09.442Z,9.31
2022-11-16T01:28:03.829Z,9.25
2022-11-16T01:30:04.500Z,9.25
2022-11-16T01:31:03.543Z,9.25
2022-11-16T01:32:03.599Z,9.25
2022-11-16T01:34:04.013Z,9.25
2022-11-16T01:35:04.174Z,9.25
2022-11-16T01:36:04.254Z,9.25
2022-11-16T01:37:09.845Z,9.25
2022-11-16T01:38:03.791Z,9.25
2022-11-16T01:39:04.354Z,9.25
2022-11-16T01:40:04.170Z,9.25
2022-11-16T01:41:04.481Z,9.25
2022-11-16T01:42:03.736Z,9.19
2022-11-16T01:43:03.932Z,9.19
2022-11-16T01:44:09.415Z,9.25
2022-11-16T01:45:03.610Z,9.19
2022-11-16T01:46:04.095Z,9.19
2022-11-16T01:47:04.192Z,9.19
2022-11-16T01:48:08.681Z,9.19
2022-11-16T01:49:04.231Z,9.12
2022-11-16T01:50:09.173Z,9.12
2022-11-16T01:51:09.387Z,9.12
2022-11-16T01:52:04.492Z,9.12
2022-11-16T01:53:04.720Z,9.12
2022-11-16T01:54:03.988Z,9.06
2022-11-16T01:55:04.084Z,9.06
2022-11-16T01:56:03.987Z,9.06
2022-11-16T01:57:09.840Z,9.00
2022-11-16T01:58:03.853Z,9.00
2022-11-16T01:59:04.012Z,9.00
2022-11-16T02:00:04.244Z,9.00
2022-11-16T02:01:04.458Z,9.00
2022-11-16T02:02:04.027Z,9.00
2022-11-16T02:03:04.195Z,9.00
2022-11-16T02:04:09.656Z,9.00
2022-11-16T02:05:05.461Z,9.00
2022-11-16T02:06:03.593Z,8.94
2022-11-16T02:07:04.303Z,8.94
2022-11-16T02:08:04.094Z,8.94
2022-11-16T02:09:04.308Z,8.94
2022-11-16T02:10:04.238Z,8.88
2022-11-16T02:11:04.298Z,8.88
2022-11-16T02:12:04.306Z,8.88
2022-11-16T02:13:04.315Z,8.81
2022-11-16T02:14:04.305Z,8.81
2022-11-16T02:15:04.381Z,8.81
2022-11-16T02:16:04.391Z,8.75
2022-11-16T02:17:03.528Z,8.75
2022-11-16T02:18:03.834Z,8.75
2022-11-16T02:19:03.994Z,8.69
2022-11-16T02:20:03.982Z,8.75
2022-11-16T02:21:03.904Z,8.75
2022-11-16T02:22:03.911Z,8.75
2022-11-16T02:23:04.001Z,8.69
2022-11-16T02:24:03.912Z,8.75
2022-11-16T02:25:04.070Z,8.75
2022-11-16T02:26:04.144Z,8.75
2022-11-16T02:27:04.351Z,8.69
2022-11-16T02:28:04.322Z,8.62
2022-11-16T02:29:04.300Z,8.62
2022-11-16T02:30:04.315Z,8.62
2022-11-16T02:31:04.303Z,8.56
2022-11-16T02:32:04.394Z,8.56
2022-11-16T02:33:04.465Z,8.56
2022-11-16T02:34:04.416Z,8.56
2022-11-16T02:35:03.516Z,8.50
2022-11-16T02:36:03.589Z,8.56
2022-11-16T02:37:03.670Z,8.50
2022-11-16T02:38:03.674Z,8.50
2022-11-16T02:39:03.827Z,8.50
2022-11-16T02:40:03.985Z,8.56
2022-11-16T02:41:04.052Z,8.56
2022-11-16T02:42:03.912Z,8.56
2022-11-16T02:43:03.991Z,8.62
2022-11-16T02:44:04.065Z,8.62
2022-11-16T02:45:04.072Z,8.62
2022-11-16T02:46:04.075Z,8.56
2022-11-16T02:47:04.233Z,8.56
2022-11-16T02:48:04.404Z,8.56
2022-11-16T02:49:04.389Z,8.56
2022-11-16T02:50:04.389Z,8.56
2022-11-16T02:51:03.565Z,8.50
2022-11-16T02:52:03.511Z,8.50
2022-11-16T02:53:03.591Z,8.50
2022-11-16T02:54:03.590Z,8.50
2022-11-16T02:55:03.619Z,8.50
2022-11-16T02:56:03.760Z,8.50
2022-11-16T02:57:03.758Z,8.50
2022-11-16T02:58:03.877Z,8.44
2022-11-16T02:59:03.981Z,8.44
2022-11-16T03:00:04.151Z,8.44
2022-11-16T03:01:04.211Z,8.44
2022-11-16T03:02:04.229Z,8.50
2022-11-16T03:03:04.309Z,8.50
2022-11-16T03:04:04.392Z,8.50
2022-11-16T03:05:03.559Z,8.56
2022-11-16T03:06:03.426Z,8.50
2022-11-16T03:07:03.549Z,8.50
2022-11-16T03:08:03.662Z,8.44
2022-11-16T03:09:03.852Z,8.44
2022-11-16T03:10:03.830Z,8.44
2022-11-16T03:11:03.750Z,8.44
2022-11-16T03:12:03.921Z,8.44
2022-11-16T03:13:03.828Z,8.44
2022-11-16T03:14:03.832Z,8.44
2022-11-16T03:15:03.911Z,8.44
2022-11-16T03:16:03.989Z,8.44
2022-11-16T03:17:04.148Z,8.38
2022-11-16T03:18:04.215Z,8.38
2022-11-16T03:19:04.394Z,8.38
2022-11-16T03:21:03.750Z,8.38
2022-11-16T03:22:03.908Z,8.38
2022-11-16T03:23:03.936Z,8.38
2022-11-16T03:24:03.982Z,8.44
2022-11-16T03:25:04.067Z,8.38
2022-11-16T03:26:03.989Z,8.38
2022-11-16T03:27:03.987Z,8.38
2022-11-16T03:28:04.082Z,8.38
2022-11-16T03:29:04.154Z,8.38
2022-11-16T03:30:04.272Z,8.38
2022-11-16T03:31:04.231Z,8.38
2022-11-16T03:32:04.233Z,8.38
2022-11-16T03:33:04.229Z,8.44
2022-11-16T03:34:04.298Z,8.44
2022-11-16T03:35:04.378Z,8.44
2022-11-16T03:36:04.407Z,8.44
2022-11-16T03:37:04.422Z,8.44
2022-11-16T03:38:03.510Z,8.44
2022-11-16T03:39:03.505Z,8.50
2022-11-16T03:40:03.619Z,8.50
2022-11-16T03:41:03.597Z,8.50
2022-11-16T03:42:03.509Z,8.44
2022-11-16T03:43:03.612Z,8.44
2022-11-16T03:44:03.502Z,8.44
2022-11-16T03:45:03.988Z,8.44
2022-11-16T03:46:03.902Z,8.44
2022-11-16T03:47:03.981Z,8.44
2022-11-16T03:48:04.085Z,8.44
2022-11-16T03:49:04.157Z,8.38
2022-11-16T03:50:04.336Z,8.44
2022-11-16T03:51:04.314Z,8.44
2022-11-16T03:52:04.298Z,8.38
2022-11-16T03:53:04.396Z,8.38
2022-11-16T03:54:04.386Z,8.38
2022-11-16T03:55:04.393Z,8.38
2022-11-16T03:56:04.394Z,8.38
2022-11-16T03:57:04.383Z,8.38
2022-11-16T03:58:04.228Z,8.38
2022-11-16T03:59:04.395Z,8.38
2022-11-16T04:00:04.388Z,8.31
2022-11-16T04:01:04.059Z,8.38
2022-11-16T04:02:03.744Z,8.31
2022-11-16T04:03:03.825Z,8.31
2022-11-16T04:04:03.911Z,8.31
2022-11-16T04:05:03.822Z,8.31
2022-11-16T04:06:03.995Z,8.31
2022-11-16T04:07:04.289Z,8.31
2022-11-16T04:08:04.300Z,8.31
2022-11-16T04:09:04.306Z,8.31
2022-11-16T04:10:04.466Z,8.31
2022-11-16T04:11:03.517Z,8.31
2022-11-16T04:12:03.585Z,8.31
2022-11-16T04:13:03.678Z,8.31
2022-11-16T04:14:07.963Z,8.31
2022-11-16T04:15:04.392Z,8.31
2022-11-16T04:16:04.389Z,8.31
2022-11-16T04:17:04.466Z,8.31
2022-11-16T04:18:03.509Z,8.31
2022-11-16T04:19:03.508Z,8.31
2022-11-16T04:20:03.592Z,8.31
2022-11-16T04:21:03.597Z,8.31
2022-11-16T04:22:03.598Z,8.31
2022-11-16T04:23:03.984Z,8.31
2022-11-16T04:24:04.155Z,8.31
2022-11-16T04:25:04.072Z,8.31
2022-11-16T04:26:04.228Z,8.31
2022-11-16T04:27:04.242Z,8.31
2022-11-16T04:28:04.308Z,8.31
2022-11-16T04:29:04.388Z,8.31
2022-11-16T04:30:04.220Z,8.31
2022-11-16T04:31:04.381Z,8.31
2022-11-16T04:32:04.312Z,8.31
2022-11-16T04:33:03.996Z,8.31
2022-11-16T04:34:04.226Z,8.31
2022-11-16T04:35:04.154Z,8.31
2022-11-16T04:36:04.163Z,8.31
2022-11-16T04:37:04.152Z,8.31
2022-11-16T04:38:04.151Z,8.31
2022-11-16T04:39:04.238Z,8.31
2022-11-16T04:40:04.229Z,8.31
2022-11-16T04:41:04.313Z,8.31
2022-11-16T04:42:04.305Z,8.31
2022-11-16T04:43:04.385Z,8.31
2022-11-16T04:44:04.463Z,8.31
2022-11-16T04:45:04.399Z,8.31
2022-11-16T04:46:04.394Z,8.31
2022-11-16T04:47:05.288Z,8.31
2022-11-16T04:48:04.388Z,8.31
2022-11-16T04:49:03.506Z,8.31
2022-11-16T04:50:04.472Z,8.31
2022-11-16T04:51:04.491Z,8.31
2022-11-16T04:52:04.465Z,8.31
2022-11-16T04:53:03.512Z,8.38
2022-11-16T04:54:03.510Z,8.38
2022-11-16T04:55:03.845Z,8.31
2022-11-16T04:56:03.764Z,8.31
2022-11-16T04:57:03.836Z,8.31
2022-11-16T04:58:03.758Z,8.31
2022-11-16T04:59:03.836Z,8.31
2022-11-16T05:00:03.828Z,8.31
2022-11-16T05:01:03.966Z,8.31
2022-11-16T05:02:04.202Z,8.31
2022-11-16T05:03:04.147Z,8.31
2022-11-16T05:04:04.142Z,8.31
2022-11-16T05:05:04.151Z,8.25
2022-11-16T05:06:04.312Z,8.31
2022-11-16T05:07:04.267Z,8.25
2022-11-16T05:08:04.223Z,8.31
2022-11-16T05:09:04.322Z,8.25
2022-11-16T05:10:04.235Z,8.31
2022-11-16T05:11:04.302Z,8.31
2022-11-16T05:12:04.483Z,8.25
2022-11-16T05:13:04.391Z,8.25
2022-11-16T05:14:04.486Z,8.31
2022-11-16T05:15:04.477Z,8.31
2022-11-16T05:16:03.590Z,8.31
2022-11-16T05:17:03.674Z,8.31
2022-11-16T05:18:03.669Z,8.25
2022-11-16T05:19:03.762Z,8.25
2022-11-16T05:20:03.869Z,8.25
2022-11-16T05:21:03.888Z,8.25
2022-11-16T05:22:03.526Z,8.25
2022-11-16T05:23:03.605Z,8.25
2022-11-16T05:24:03.604Z,8.25
2022-11-16T05:25:03.774Z,8.31
2022-11-16T05:26:03.870Z,8.31
2022-11-16T05:27:03.891Z,8.25
2022-11-16T05:28:03.848Z,8.31
2022-11-16T05:29:03.919Z,8.31
2022-11-16T05:30:04.081Z,8.31
2022-11-16T05:31:03.989Z,8.31
2022-11-16T05:32:04.081Z,8.31
2022-11-16T05:33:04.076Z,8.31
2022-11-16T05:34:04.065Z,8.31
2022-11-16T05:35:04.153Z,8.31
2022-11-16T05:36:04.241Z,8.31
2022-11-16T05:37:04.308Z,8.25
2022-11-16T05:38:04.222Z,8.25
2022-11-16T05:39:03.529Z,8.25
2022-11-16T05:40:03.596Z,8.25
2022-11-16T05:41:03.681Z,8.25
2022-11-16T05:42:04.076Z,8.25
2022-11-16T05:43:04.099Z,8.25
2022-11-16T05:44:04.336Z,8.31
2022-11-16T05:45:04.221Z,8.31
2022-11-16T05:46:04.302Z,8.25
2022-11-16T05:47:04.397Z,8.25
2022-11-16T05:48:04.391Z,8.25
2022-11-16T05:49:04.390Z,8.25
2022-11-16T05:50:03.526Z,8.19
2022-11-16T05:51:03.594Z,8.19
2022-11-16T05:52:03.602Z,8.19
2022-11-16T05:53:03.586Z,8.12
2022-11-16T05:54:03.683Z,8.19
2022-11-16T05:55:03.678Z,8.12
2022-11-16T05:56:03.711Z,8.12
2022-11-16T05:57:03.759Z,8.12
2022-11-16T05:58:03.747Z,8.12
2022-11-16T05:59:03.752Z,8.06
2022-11-16T06:00:03.832Z,8.12
2022-11-16T06:01:03.837Z,8.06
2022-11-16T06:02:03.958Z,8.06
2022-11-16T06:03:04.018Z,8.06
2022-11-16T06:04:03.926Z,8.06
2022-11-16T06:05:03.997Z,8.06
2022-11-16T06:06:03.993Z,8.06
2022-11-16T06:07:04.140Z,8.06
2022-11-16T06:08:03.995Z,8.06
2022-11-16T06:09:04.077Z,8.06
2022-11-16T06:10:04.072Z,8.06
2022-11-16T06:11:04.083Z,8.06
2022-11-16T06:12:04.418Z,8.00
2022-11-16T06:13:04.367Z,8.00
2022-11-16T06:14:04.321Z,8.06
2022-11-16T06:15:04.242Z,8.06
2022-11-16T06:16:04.322Z,8.00
2022-11-16T06:17:04.324Z,8.00
2022-11-16T06:18:04.479Z,8.00
2022-11-16T06:19:03.526Z,8.00
2022-11-16T06:20:03.517Z,8.00
2022-11-16T06:21:04.466Z,8.00
2022-11-16T06:22:04.400Z,8.00
2022-11-16T06:23:04.481Z,8.06
2022-11-16T06:24:04.486Z,8.06
2022-11-16T06:25:03.513Z,8.06
2022-11-16T06:26:03.509Z,8.06
2022-11-16T06:27:03.609Z,8.12
2022-11-16T06:28:07.625Z,8.12
2022-11-16T06:29:03.669Z,8.12
2022-11-16T06:30:03.831Z,8.12
2022-11-16T06:31:03.778Z,8.06
2022-11-16T06:32:03.767Z,8.06
2022-11-16T06:33:03.827Z,8.06
2022-11-16T06:34:03.830Z,8.06
2022-11-16T06:35:03.922Z,8.06
2022-11-16T06:36:03.833Z,8.06
2022-11-16T06:37:04.151Z,8.06
2022-11-16T06:38:04.324Z,8.06
2022-11-16T06:39:04.146Z,8.06
2022-11-16T06:40:04.231Z,8.06
2022-11-16T06:41:04.313Z,8.06
2022-11-16T06:42:04.311Z,8.06
2022-11-16T06:43:03.445Z,8.06
2022-11-16T06:44:03.521Z,8.12
2022-11-16T06:45:03.593Z,8.06
2022-11-16T06:46:03.682Z,8.06
2022-11-16T06:47:03.516Z,8.06
2022-11-16T06:48:04.572Z,8.06
2022-11-16T06:49:04.393Z,8.06
2022-11-16T06:50:03.519Z,8.06
2022-11-16T06:51:03.675Z,8.06
2022-11-16T06:52:03.596Z,8.00
2022-11-16T06:53:03.532Z,8.00
2022-11-16T06:54:03.605Z,8.06
2022-11-16T06:55:03.725Z,8.00
2022-11-16T06:56:03.758Z,8.00
2022-11-16T06:57:03.757Z,8.00
2022-11-16T06:58:03.748Z,8.00
2022-11-16T06:59:03.760Z,8.00
2022-11-16T07:00:04.043Z,8.00
2022-11-16T07:01:04.023Z,8.06
2022-11-16T07:02:04.220Z,8.00
2022-11-16T07:03:04.159Z,8.06
2022-11-16T07:04:04.234Z,8.06
2022-11-16T07:05:04.358Z,8.06
2022-11-16T07:06:04.396Z,8.06
2022-11-16T07:07:04.367Z,8.06
2022-11-16T07:08:04.324Z,8.06
2022-11-16T07:09:04.320Z,8.06
2022-11-16T07:10:04.423Z,8.06
2022-11-16T07:11:04.376Z,8.06
2022-11-16T07:12:03.594Z,8.00
2022-11-16T07:13:03.684Z,8.06
2022-11-16T07:14:03.590Z,8.00
2022-11-16T07:15:03.590Z,8.06
2022-11-16T07:16:03.678Z,8.06
2022-11-16T07:17:08.155Z,8.06
2022-11-16T07:18:03.670Z,8.06
2022-11-16T07:19:03.745Z,8.06
2022-11-16T07:20:03.926Z,8.06
2022-11-16T07:21:03.843Z,8.06
2022-11-16T07:22:03.754Z,8.06
2022-11-16T07:23:03.763Z,8.06
2022-11-16T07:24:03.761Z,8.06
2022-11-16T07:25:03.759Z,8.06
2022-11-16T07:26:03.913Z,8.00
2022-11-16T07:27:03.853Z,8.06
2022-11-16T07:28:03.993Z,8.00
2022-11-16T07:29:03.993Z,8.06
2022-11-16T07:30:04.077Z,8.00
2022-11-16T07:31:04.239Z,8.06
2022-11-16T07:32:04.236Z,8.06
2022-11-16T07:33:04.241Z,8.00
2022-11-16T07:34:04.238Z,8.06
2022-11-16T07:35:04.321Z,8.00
2022-11-16T07:36:04.393Z,8.00
2022-11-16T07:37:04.395Z,8.06
2022-11-16T07:38:04.401Z,8.06
2022-11-16T07:39:03.594Z,8.06
2022-11-16T07:40:03.771Z,8.00
2022-11-16T07:41:03.835Z,8.00
2022-11-16T07:42:03.837Z,8.06
2022-11-16T07:43:03.913Z,8.00
2022-11-16T07:44:04.971Z,8.00
2022-11-16T07:45:04.081Z,8.00
2022-11-16T07:46:21.482Z,8.00
2022-11-16T07:47:04.473Z,7.94
2022-11-16T07:48:03.513Z,7.94
2022-11-16T07:49:07.101Z,7.94
2022-11-16T07:50:03.841Z,7.94
2022-11-16T07:51:04.081Z,7.88
2022-11-16T07:52:04.013Z,7.94
2022-11-16T07:53:04.001Z,7.88
2022-11-16T07:54:04.073Z,7.88
2022-11-16T07:55:04.229Z,7.88
2022-11-16T07:56:04.153Z,7.88
2022-11-16T07:57:04.309Z,7.81
2022-11-16T07:58:04.395Z,7.75
2022-11-16T07:59:04.474Z,7.75
2022-11-16T08:00:04.397Z,7.75
2022-11-16T08:01:04.390Z,7.75
2022-11-16T08:02:04.421Z,7.69
2022-11-16T08:03:03.615Z,7.69
2022-11-16T08:04:03.626Z,7.75
2022-11-16T08:05:04.642Z,7.69
2022-11-16T08:06:03.833Z,7.62
2022-11-16T08:07:04.040Z,7.62
2022-11-16T08:08:04.195Z,7.62
2022-11-16T08:09:04.073Z,7.62
2022-11-16T08:10:04.165Z,7.56
2022-11-16T08:11:04.242Z,7.56
2022-11-16T08:12:04.324Z,7.56
2022-11-16T08:13:03.588Z,7.56
2022-11-16T08:14:03.773Z,7.56
2022-11-16T08:15:03.913Z,7.50
2022-11-16T08:16:03.840Z,7.50
2022-11-16T08:17:04.064Z,7.56
2022-11-16T08:18:04.154Z,7.50
2022-11-16T08:19:04.233Z,7.50
2022-11-16T08:20:03.601Z,7.50
2022-11-16T08:21:03.843Z,7.50
2022-11-16T08:22:04.152Z,7.50
2022-11-16T08:23:04.359Z,7.50
2022-11-16T08:24:04.560Z,7.50
2022-11-16T08:25:04.415Z,7.50
2022-11-16T08:26:03.603Z,7.56
2022-11-16T08:27:03.831Z,7.50
2022-11-16T08:28:04.287Z,7.56
2022-11-16T08:29:04.547Z,7.56
2022-11-16T08:30:03.890Z,7.56
2022-11-16T08:31:03.692Z,7.56
2022-11-16T08:32:03.857Z,7.56
2022-11-16T08:33:03.915Z,7.56
2022-11-16T08:34:03.913Z,7.56
2022-11-16T08:35:03.985Z,7.50
2022-11-16T08:36:04.838Z,7.50
2022-11-16T08:37:03.993Z,7.50
2022-11-16T08:38:04.113Z,7.50
2022-11-16T08:39:04.009Z,7.50
2022-11-16T08:40:04.161Z,7.50
2022-11-16T08:41:04.074Z,7.50
2022-11-16T08:42:04.230Z,7.50
2022-11-16T08:43:03.514Z,7.50
2022-11-16T08:44:03.845Z,7.56
2022-11-16T08:45:03.847Z,7.56
2022-11-16T08:46:03.803Z,7.56
2022-11-16T08:47:03.834Z,7.56
2022-11-16T08:48:04.303Z,7.56
2022-11-16T08:49:03.830Z,7.56
2022-11-16T08:50:03.824Z,7.56
2022-11-16T08:51:16.749Z,7.56
2022-11-16T08:52:04.260Z,7.56
2022-11-16T08:53:04.143Z,7.56
2022-11-16T08:54:04.246Z,7.56
2022-11-16T08:55:04.398Z,7.56
2022-11-16T08:56:04.316Z,7.56
2022-11-16T08:57:04.396Z,7.62
2022-11-16T08:58:04.478Z,7.56
2022-11-16T08:59:03.611Z,7.56
2022-11-16T09:00:03.597Z,7.62
2022-11-16T09:01:03.770Z,7.62
2022-11-16T09:02:03.982Z,7.62
2022-11-16T09:03:04.266Z,7.62
2022-11-16T09:04:03.598Z,7.62
2022-11-16T09:05:03.830Z,7.62
2022-11-16T09:06:03.820Z,7.62
2022-11-16T09:07:04.225Z,7.62
2022-11-16T09:08:04.066Z,7.69
2022-11-16T09:09:04.159Z,7.62
2022-11-16T09:10:04.397Z,7.62
2022-11-16T09:11:04.468Z,7.62
2022-11-16T09:12:03.725Z,7.62
2022-11-16T09:13:03.428Z,7.62
2022-11-16T09:14:04.470Z,7.62
2022-11-16T09:15:03.677Z,7.62
2022-11-16T09:16:03.597Z,7.62
2022-11-16T09:17:03.844Z,7.62
2022-11-16T09:18:03.999Z,7.62
2022-11-16T09:19:04.063Z,7.62
2022-11-16T09:20:04.270Z,7.62
2022-11-16T09:21:04.325Z,7.69
2022-11-16T09:22:04.324Z,7.69
2022-11-16T09:23:04.473Z,7.69
2022-11-16T09:24:04.355Z,7.69
2022-11-16T09:25:04.331Z,7.69
2022-11-16T09:26:04.464Z,7.69
2022-11-16T09:27:03.601Z,7.69
2022-11-16T09:28:03.584Z,7.69
2022-11-16T09:29:03.673Z,7.69
2022-11-16T09:30:04.479Z,7.69
2022-11-16T09:31:03.664Z,7.69
2022-11-16T09:32:03.766Z,7.69
2022-11-16T09:33:04.315Z,7.69
2022-11-16T09:34:03.840Z,7.69
2022-11-16T09:35:03.999Z,7.69
2022-11-16T09:36:04.076Z,7.69
2022-11-16T09:37:04.245Z,7.69
2022-11-16T09:38:04.324Z,7.69
2022-11-16T09:39:30.423Z,7.75
2022-11-16T09:40:04.471Z,7.75
2022-11-16T09:41:04.314Z,7.75
2022-11-16T09:42:03.677Z,7.75
2022-11-16T09:43:03.665Z,7.75
2022-11-16T09:44:04.071Z,7.75
2022-11-16T09:45:04.240Z,7.81
2022-11-16T09:46:03.583Z,7.81
2022-11-16T09:47:03.599Z,7.81
2022-11-16T09:48:03.760Z,7.81
2022-11-16T09:49:03.831Z,7.88
2022-11-16T09:50:04.352Z,7.88
2022-11-16T09:51:03.827Z,7.94
2022-11-16T09:52:03.909Z,7.94
2022-11-16T09:53:04.081Z,7.94
2022-11-16T09:54:04.182Z,7.94
2022-11-16T09:55:04.344Z,7.94
2022-11-16T09:56:03.672Z,7.94
2022-11-16T09:57:05.606Z,8.00
2022-11-16T09:58:04.232Z,8.00
2022-11-16T09:59:04.421Z,8.00
2022-11-16T10:00:03.911Z,8.06
2022-11-16T10:01:04.300Z,8.06
2022-11-16T10:02:04.387Z,8.06
2022-11-16T10:03:04.399Z,8.06
2022-11-16T10:04:03.510Z,8.06
2022-11-16T10:05:03.838Z,8.06
2022-11-16T10:06:04.446Z,8.12
2022-11-16T10:07:04.295Z,8.12
2022-11-16T10:08:04.470Z,8.12
2022-11-16T10:09:03.513Z,8.19
2022-11-16T10:10:03.519Z,8.19
2022-11-16T10:11:03.520Z,8.19
2022-11-16T10:12:03.587Z,8.25
2022-11-16T10:13:03.826Z,8.25
2022-11-16T10:14:04.287Z,8.25
2022-11-16T10:15:04.327Z,8.25
2022-11-16T10:16:03.512Z,8.25
2022-11-16T10:17:03.673Z,8.31
2022-11-16T10:18:03.758Z,8.31
2022-11-16T10:19:03.938Z,8.31
2022-11-16T10:20:03.836Z,8.31
2022-11-16T10:21:04.152Z,8.38
2022-11-16T10:22:04.500Z,8.44
2022-11-16T10:23:03.588Z,8.44
2022-11-16T10:24:03.506Z,8.44
2022-11-16T10:25:03.766Z,8.50
2022-11-16T10:26:03.994Z,8.50
2022-11-16T10:27:04.074Z,8.56
2022-11-16T10:28:04.166Z,8.56
2022-11-16T10:29:04.435Z,8.62
2022-11-16T10:30:03.587Z,8.62
2022-11-16T10:31:03.667Z,8.62
2022-11-16T10:32:03.847Z,8.69
2022-11-16T10:33:08.144Z,8.69
2022-11-16T10:34:04.071Z,8.75
2022-11-16T10:35:04.146Z,8.75
2022-11-16T10:36:03.592Z,8.75
2022-11-16T10:37:03.599Z,8.81
2022-11-16T10:38:03.603Z,8.81
2022-11-16T10:39:03.751Z,8.88
2022-11-16T10:40:03.755Z,8.88
2022-11-16T10:41:03.845Z,8.88
2022-11-16T10:42:07.389Z,8.94
2022-11-16T10:43:04.011Z,8.94
2022-11-16T10:44:04.230Z,8.94
2022-11-16T10:45:04.262Z,9.00
2022-11-16T10:46:03.584Z,9.00
2022-11-16T10:47:03.595Z,9.00
2022-11-16T10:48:03.633Z,9.00
2022-11-16T10:49:03.614Z,9.06
2022-11-16T10:50:03.746Z,9.06
2022-11-16T10:51:03.853Z,9.06
2022-11-16T10:52:03.913Z,9.12
2022-11-16T10:53:03.994Z,9.12
2022-11-16T10:54:04.305Z,9.12
2022-11-16T10:55:04.391Z,9.12
2022-11-16T10:56:03.513Z,9.12
2022-11-16T10:57:03.588Z,9.19
2022-11-16T10:58:03.763Z,9.19
2022-11-16T10:59:03.830Z,9.19
2022-11-16T11:00:03.929Z,9.19
2022-11-16T11:01:03.864Z,9.25
2022-11-16T11:03:04.229Z,9.25
2022-11-16T11:04:04.154Z,9.25
2022-11-16T11:05:03.611Z,9.31
2022-11-16T11:06:03.600Z,9.31
2022-11-16T11:07:03.875Z,9.38
2022-11-16T11:08:04.239Z,9.38
2022-11-16T11:09:04.232Z,9.38
2022-11-16T11:10:04.168Z,9.44
2022-11-16T11:11:04.076Z,9.44
2022-11-16T11:12:04.228Z,9.50
2022-11-16T11:13:04.388Z,9.50
2022-11-16T11:14:04.474Z,9.50
2022-11-16T11:15:04.465Z,9.50
2022-11-16T11:16:04.472Z,9.56
2022-11-16T11:17:04.474Z,9.56
2022-11-16T11:18:03.681Z,9.56
2022-11-16T11:19:03.758Z,9.56
2022-11-16T11:20:03.832Z,9.56
2022-11-16T11:21:03.829Z,9.56
2022-11-16T11:22:03.835Z,9.62
2022-11-16T11:23:03.920Z,9.62
2022-11-16T11:24:29.576Z,9.62
2022-11-16T11:25:03.836Z,9.62
2022-11-16T11:26:04.070Z,9.62
2022-11-16T11:27:03.980Z,9.69
2022-11-16T11:28:04.156Z,9.69
2022-11-16T11:29:04.146Z,9.69
2022-11-16T11:30:04.326Z,9.69
2022-11-16T11:31:04.390Z,9.69
2022-11-16T11:32:04.318Z,9.69
2022-11-16T11:33:04.394Z,9.75
2022-11-16T11:34:03.679Z,9.75
2022-11-16T11:35:03.665Z,9.75
2022-11-16T11:36:03.766Z,9.75
2022-11-16T11:37:03.672Z,9.75
2022-11-16T11:38:07.888Z,9.81
2022-11-16T11:39:04.151Z,9.81
2022-11-16T11:40:04.310Z,9.81
2022-11-16T11:41:04.151Z,9.81
2022-11-16T11:42:04.387Z,9.81
2022-11-16T11:43:04.471Z,9.88
2022-11-16T11:44:03.587Z,9.88
2022-11-16T11:45:03.665Z,9.88
2022-11-16T11:46:04.000Z,9.88
2022-11-16T11:47:42.731Z,9.88
2022-11-16T11:48:03.105Z,9.88
2022-11-16T11:49:04.140Z,9.88
2022-11-16T11:50:04.468Z,9.94
2022-11-16T11:51:03.532Z,9.94
2022-11-16T11:52:03.691Z,9.94
2022-11-16T11:53:03.912Z,9.94
2022-11-16T11:54:04.276Z,9.94
2022-11-16T11:55:04.154Z,9.94
2022-11-16T11:56:04.316Z,9.94
2022-11-16T11:57:04.318Z,9.94
2022-11-16T11:58:04.396Z,9.94
2022-11-16T11:59:04.401Z,9.94
2022-11-16T12:00:03.673Z,9.94
2022-11-16T12:01:03.838Z,9.94
2022-11-16T12:02:03.907Z,10.00
2022-11-16T12:03:04.229Z,10.00
2022-11-16T12:04:04.311Z,10.00
2022-11-16T12:05:04.306Z,10.00
2022-11-16T12:06:03.711Z,10.00
2022-11-16T12:07:03.692Z,10.00
2022-11-16T12:08:03.918Z,10.00
2022-11-16T12:09:03.987Z,10.00
2022-11-16T12:10:04.399Z,10.00
2022-11-16T12:11:04.413Z,10.00
2022-11-16T12:12:04.400Z,10.06
2022-11-16T12:13:03.747Z,10.06
2022-11-16T12:14:03.766Z,10.06
2022-11-16T12:15:04.248Z,10.06
2022-11-16T12:16:04.158Z,10.12
2022-11-16T12:17:04.231Z,10.06
2022-11-16T12:18:04.152Z,10.12
2022-11-16T12:19:03.597Z,10.12
2022-11-16T12:20:03.603Z,10.12
2022-11-16T12:21:03.815Z,10.12
2022-11-16T12:22:03.671Z,10.12
2022-11-16T12:23:04.483Z,10.12
2022-11-16T12:24:03.986Z,10.12
2022-11-16T12:25:04.313Z,10.19
2022-11-16T12:26:03.597Z,10.19
2022-11-16T12:27:03.908Z,10.19
2022-11-16T12:28:04.234Z,10.19
2022-11-16T12:29:04.388Z,10.19
2022-11-16T12:30:03.672Z,10.19
2022-11-16T12:31:03.591Z,10.19
2022-11-16T12:32:03.753Z,10.19
2022-11-16T12:33:03.981Z,10.19
2022-11-16T12:34:04.066Z,10.19
2022-11-16T12:35:04.466Z,10.19
2022-11-16T12:36:04.469Z,10.19
2022-11-16T12:37:03.600Z,10.19
2022-11-16T12:38:03.605Z,10.19
2022-11-16T12:39:03.761Z,10.12
2022-11-16T12:40:03.919Z,10.12
2022-11-16T12:41:04.145Z,10.12
2022-11-16T12:42:03.608Z,10.12
2022-11-16T12:43:03.607Z,10.12
2022-11-16T12:44:03.754Z,10.12
2022-11-16T12:45:03.923Z,10.12
2022-11-16T12:46:03.917Z,10.12
2022-11-16T12:47:03.913Z,10.12
2022-11-16T12:48:04.151Z,10.12
2022-11-16T12:49:04.240Z,10.12
2022-11-16T12:50:03.451Z,10.12
2022-11-16T12:51:03.610Z,10.12
2022-11-16T12:52:03.752Z,10.12
2022-11-16T12:53:03.839Z,10.12
2022-11-16T12:54:04.415Z,10.12
2022-11-16T12:55:25.174Z,10.12
2022-11-16T12:56:04.405Z,10.12
2022-11-16T12:57:04.488Z,10.12
2022-11-16T12:58:03.757Z,10.12
2022-11-16T12:59:03.673Z,10.12
2022-11-16T13:00:03.936Z,10.12
2022-11-16T13:01:04.073Z,10.12
2022-11-16T13:02:04.158Z,10.19
2022-11-16T13:03:04.418Z,10.19
2022-11-16T13:04:03.666Z,10.19
2022-11-16T13:05:03.740Z,10.19
2022-11-16T13:06:03.907Z,10.19
2022-11-16T13:07:07.958Z,10.19
2022-11-16T13:08:04.069Z,10.19
2022-11-16T13:09:04.232Z,10.19
2022-11-16T13:10:04.160Z,10.19
2022-11-16T13:11:04.154Z,10.19
2022-11-16T13:12:04.177Z,10.19
2022-11-16T13:13:35.765Z,10.19
2022-11-16T13:14:03.995Z,10.19
2022-11-16T13:15:04.002Z,10.25
2022-11-16T13:16:03.997Z,10.25
2022-11-16T13:17:04.033Z,10.25
2022-11-16T13:18:03.995Z,10.25
2022-11-16T13:19:04.085Z,10.25
2022-11-16T13:20:03.989Z,10.25
2022-11-16T13:21:04.244Z,10.25
2022-11-16T13:22:04.162Z,10.25